Latest Weather Observations for Camooweal

IDQ60801

Issued at 10:05 am EST Sunday 26 October 2014 (issued every 30 minutes, with the page automatically refreshed every 10 minutes)

About weather observations | Map of weather stations | Latest weather observations for QLD | Other Formats
Station Details ID: 037010 Name: CAMOOWEAL TOWNSHIP Lat: -19.92 Lon: 138.12 Height: 231.2 m
Data from the previous 72 hours. | See also: Recent months at Camooweal
Date/Time
EST
Temp
°C
App
Temp
°C
Dew
Point
Rel
Hum
%
Delta-T
°C
Wind Press
QNH
hPa
Press
MSL
hPa
Rain
since 9 am
mm
Dir
 
Spd
km/h
Gust
km/h
Spd
kts
Gust
kts
26/10:00am 34.2 29.1 2.9 14 16.3 N 19 30 10 16 1016.6 1015.2 0.0
26/09:30am 33.3 28.1 2.2 14 15.9 NNE 19 24 10 13 1016.7 1015.3 0.0
26/09:00am 32.1 27.2 2.2 15 15.2 NNE 17 24 9 13 1016.6 1015.2 0.0
26/08:30am 31.3 26.3 3.4 17 14.4 NE 19 24 10 13 1016.5 1015.1 0.0
26/08:00am 30.1 25.4 3.2 18 13.7 NE 17 26 9 14 1016.2 1014.8 0.0
26/07:30am 25.8 23.1 3.7 24 11.1 NE 7 9 4 5 1015.9 1014.4 0.0
26/07:00am 23.0 20.4 3.0 27 9.7 NNE 6 7 3 4 1015.5 1014.0 0.0
26/06:30am 22.2 19.0 3.3 29 9.2 E 9 11 5 6 1014.8 1013.4 0.0
26/06:00am 20.1 18.2 0.5 27 8.9 NE 0 0 0 0 1014.5 1013.1 0.0
26/05:30am 21.5 18.5 1.7 27 9.3 N 7 11 4 6 1014.3 1012.9 0.0
26/05:00am 22.1 18.9 2.8 28 9.3 E 9 11 5 6 1014.0 1012.6 0.0
26/04:30am 20.1 16.6 -1.1 24 9.3 S 7 7 4 4 1013.8 1012.4 0.0
26/04:00am 20.6 17.4 1.0 27 9.0 S 7 9 4 5 1013.6 1012.2 0.0
26/03:30am 20.1 18.3 1.0 28 8.7 N 0 0 0 0 1013.6 1012.2 0.0
26/03:00am 21.4 19.5 0.6 25 9.5 CALM 0 0 0 0 1013.9 1012.5 0.0
26/02:30am 22.7 19.6 -0.1 22 10.4 N 6 7 3 4 1014.0 1012.6 0.0
26/02:00am 22.6 20.6 -0.2 22 10.4 CALM 0 0 0 0 1014.2 1012.8 0.0
26/01:30am 22.7 20.9 1.1 24 10.1 CALM 0 0 0 0 1014.3 1012.9 0.0
26/01:00am 22.8 21.3 2.8 27 9.6 CALM 0 0 0 0 1014.6 1013.2 0.0
26/12:30am 23.3 21.5 1.0 23 10.4 CALM 0 0 0 0 1014.6 1013.2 0.0
26/12:00am 24.2 22.1 1.8 23 10.7 SSW 2 6 1 3 1014.9 1013.5 0.0
 
Date/Time
EST
Temp
°C
App
Temp
°C
Dew
Point
Rel
Hum
%
Delta-T
°C
Wind Press
QNH
hPa
Press
MSL
hPa
Rain
since 9 am
mm
Dir
 
Spd
km/h
Gust
km/h
Spd
kts
Gust
kts
25/11:30pm 24.8 23.0 1.0 21 11.3 CALM 0 0 0 0 1015.3 1013.8 0.0
25/11:00pm 25.6 23.5 1.7 21 11.5 E 2 6 1 3 1015.5 1014.0 0.0
25/10:30pm 26.1 23.8 0.7 19 12.1 E 2 6 1 3 1015.7 1014.2 0.0
25/10:00pm 27.6 25.3 0.4 17 13.0 ENE 2 6 1 3 1015.8 1014.3 0.0
25/09:30pm 29.4 25.6 -0.9 14 14.3 ENE 9 13 5 7 1015.7 1014.2 0.0
25/09:00pm 30.1 26.4 -0.3 14 14.6 ENE 9 11 5 6 1015.6 1014.1 0.0
25/08:30pm 30.9 27.3 0.3 14 14.9 ENE 9 11 5 6 1015.3 1013.8 0.0
25/08:00pm 31.7 28.0 -0.1 13 15.5 ENE 9 11 5 6 1014.9 1013.5 0.0
25/07:30pm 32.0 28.2 -0.9 12 15.9 E 9 11 5 6 1014.6 1013.2 0.0
25/07:00pm 33.8 29.2 -0.7 11 16.9 E 13 17 7 9 1014.3 1012.9 0.0
25/06:30pm 35.4 29.7 -0.8 10 17.9 ENE 19 24 10 13 1013.9 1012.5 0.0
25/06:00pm 35.9 30.0 -0.5 10 18.1 E 20 28 11 15 1013.6 1012.2 0.0
25/05:30pm 36.4 29.8 -0.1 10 18.3 ENE 24 35 13 19 1013.4 1012.0 0.0
25/05:00pm 36.6 31.0 0.1 10 18.4 ENE 19 35 10 19 1013.3 1011.9 0.0
25/04:30pm 36.4 30.4 1.2 11 18.1 E 22 33 12 18 1013.2 1011.8 0.0
25/04:00pm 37.5 32.0 2.1 11 18.5 NE 20 33 11 18 1013.5 1012.1 0.0
25/03:30pm 37.8 32.6 2.3 11 18.7 ENE 19 26 10 14 1013.8 1012.4 0.0
25/03:00pm 36.8 31.7 2.8 12 17.9 NE 19 24 10 13 1014.3 1012.9 0.0
25/02:30pm 36.4 32.2 3.6 13 17.5 E 15 30 8 16 1014.7 1013.3 0.0
25/02:00pm 36.4 31.6 2.4 12 17.8 NE 17 32 9 17 1015.2 1013.7 0.0
25/01:44pm 37.2 30.4 3.1 12 18.1 ENE 28 39 15 21 1015.4 1013.9 0.0
25/01:30pm 35.9 32.7 3.2 13 17.3 NE 9 17 5 9 1015.7 1014.2 0.0
25/01:00pm 36.1 30.9 2.2 12 17.6 NE 19 30 10 16 1016.4 1015.0 0.0
25/12:30pm 34.4 29.3 3.1 14 16.4 NNE 19 30 10 16 1016.8 1015.4 0.0
25/12:00pm 35.0 28.5 4.5 15 16.3 ENE 28 35 15 19 1017.4 1016.0 0.0
25/11:30am 33.6 28.5 7.5 20 14.6 NNE 24 35 13 19 1017.8 1016.4 0.0
25/11:00am 33.8 29.1 9.1 22 14.1 NNE 24 35 13 19 1018.0 1016.6 0.0
25/10:30am 32.7 27.7 9.5 24 13.3 NNE 26 39 14 21 1018.3 1016.9 0.0
25/10:00am 31.8 26.2 8.7 24 13.0 NNE 28 41 15 22 1018.4 1017.0 0.0
25/09:30am 31.4 25.6 7.8 23 13.1 NE 28 43 15 23 1018.6 1017.2 0.0
25/09:00am 30.4 24.4 7.0 23 12.7 NE 28 41 15 22 1018.6 1017.2 0.0
25/08:30am 29.7 23.2 6.4 23 12.5 NE 30 43 16 23 1018.5 1017.1 0.0
25/08:00am 29.0 22.5 4.5 21 12.7 ENE 28 43 15 23 1018.4 1017.0 0.0
25/07:56am 28.9 22.2 3.7 20 12.9 ENE 28 43 15 23 1018.4 1017.0 0.0
25/07:30am 27.3 22.5 2.4 20 12.3 E 17 24 9 13 1017.8 1016.4 0.0
25/07:00am 24.4 20.1 3.1 25 10.4 E 15 20 8 11 1017.4 1016.0 0.0
25/06:30am 21.9 17.8 2.1 27 9.4 E 13 15 7 8 1016.7 1015.3 0.0
25/06:00am 22.9 19.2 2.4 26 9.8 E 11 13 6 7 1016.3 1014.9 0.0
25/05:30am 22.4 18.6 2.0 26 9.7 E 11 13 6 7 1015.9 1014.4 0.0
25/05:00am 24.1 20.0 2.3 24 10.5 E 13 15 7 8 1015.7 1014.2 0.0
25/04:30am 24.3 20.1 1.9 23 10.7 E 13 15 7 8 1015.4 1013.9 0.0
25/04:00am 24.1 20.0 2.3 24 10.5 E 13 13 7 7 1015.3 1013.8 0.0
25/03:30am 24.1 20.3 1.7 23 10.7 E 11 13 6 7 1014.9 1013.5 0.0
25/03:00am 24.2 20.4 1.8 23 10.7 ESE 11 15 6 8 1014.8 1013.4 0.0
25/02:30am 24.5 20.7 2.0 23 10.8 E 11 11 6 6 1014.9 1013.5 0.0
25/02:00am 25.1 21.3 1.9 22 11.2 E 11 11 6 6 1014.9 1013.5 0.0
25/01:30am 25.3 21.9 2.1 22 11.2 E 9 11 5 6 1015.0 1013.6 0.0
25/01:00am 25.0 21.6 1.8 22 11.2 E 9 11 5 6 1015.3 1013.8 0.0
25/12:30am 25.7 22.4 2.4 22 11.4 ENE 9 11 5 6 1015.4 1013.9 0.0
25/12:00am 26.2 22.9 2.2 21 11.7 ENE 9 11 5 6 1015.6 1014.1 0.0
 
Date/Time
EST
Temp
°C
App
Temp
°C
Dew
Point
Rel
Hum
%
Delta-T
°C
Wind Press
QNH
hPa
Press
MSL
hPa
Rain
since 9 am
mm
Dir
 
Spd
km/h
Gust
km/h
Spd
kts
Gust
kts
24/11:30pm 26.9 23.5 2.1 20 12.2 ENE 9 11 5 6 1015.7 1014.2 0.0
24/11:00pm 27.9 24.2 2.2 19 12.7 ENE 11 13 6 7 1015.8 1014.3 0.0
24/10:30pm 29.1 25.0 2.4 18 13.4 ENE 13 15 7 8 1015.8 1014.3 0.0
24/10:00pm 29.0 25.4 3.1 19 13.1 ENE 11 15 6 8 1015.7 1014.2 0.0
24/09:30pm 29.0 25.8 3.1 19 13.1 ENE 9 11 5 6 1015.5 1014.0 0.0
24/09:00pm 29.6 26.5 3.5 19 13.3 ENE 9 11 5 6 1015.2 1013.7 0.0
24/08:30pm 30.4 26.9 3.4 18 13.8 E 11 13 6 7 1014.8 1013.4 0.0
24/08:00pm 30.4 27.1 2.6 17 14.1 E 9 11 5 6 1014.5 1013.1 0.0
24/07:30pm 31.7 28.1 2.8 16 14.8 E 11 13 6 7 1014.1 1012.7 0.0
24/07:00pm 33.7 29.8 3.5 15 15.8 E 13 17 7 9 1013.8 1012.4 0.0
24/06:30pm 34.6 30.3 3.2 14 16.5 E 15 20 8 11 1013.6 1012.2 0.0
24/06:00pm 34.9 31.0 3.5 14 16.6 E 13 19 7 10 1013.3 1011.9 0.0
24/05:30pm 36.1 31.1 4.4 14 17.1 ENE 20 28 11 15 1013.0 1011.6 0.0
24/05:00pm 36.4 31.2 3.6 13 17.5 ESE 20 28 11 15 1013.0 1011.6 0.0
24/04:30pm 36.4 32.0 4.6 14 17.2 ENE 17 32 9 17 1012.9 1011.5 0.0
24/04:00pm 36.6 32.2 4.8 14 17.3 ESE 17 24 9 13 1013.0 1011.6 0.0
24/03:30pm 36.8 31.3 3.9 13 17.6 E 22 33 12 18 1013.2 1011.8 0.0
24/03:00pm 36.7 30.8 3.8 13 17.6 ENE 24 37 13 20 1013.5 1012.1 0.0
24/02:30pm 37.1 31.6 4.1 13 17.8 ENE 22 37 12 20 1014.0 1012.6 0.0
24/02:00pm 36.6 31.4 3.7 13 17.6 E 20 26 11 14 1014.4 1013.0 0.0
24/01:35pm 36.9 30.3 4.0 13 17.7 E 28 46 15 25 1014.6 1013.2 0.0
24/01:30pm 36.4 29.5 2.4 12 17.8 E 28 43 15 23 1014.8 1013.4 0.0
24/01:00pm 36.2 30.4 2.3 12 17.7 NE 22 33 12 18 1015.6 1014.1 0.0
24/12:30pm 37.1 31.6 4.1 13 17.8 ENE 22 37 12 20 1016.0 1014.5 0.0
24/12:00pm 36.0 30.9 4.3 14 17.0 ENE 20 32 11 17 1016.6 1015.2 0.0
24/11:30am 35.0 30.0 4.5 15 16.3 E 20 32 11 17 1017.1 1015.7 0.0
24/11:00am 34.2 28.9 4.8 16 15.7 NNE 22 33 12 18 1017.4 1016.0 0.0
24/10:30am 34.2 29.0 5.7 17 15.5 ENE 22 32 12 17 1017.7 1016.3 0.0
24/10:00am 33.6 28.0 5.2 17 15.3 NE 24 37 13 20 1018.0 1016.6 0.0
24/09:30am 33.0 26.9 4.7 17 15.1 ENE 26 37 14 20 1017.9 1016.5 0.0
24/09:00am 31.9 25.2 3.8 17 14.6 NE 28 41 15 22 1017.6 1016.2 0.0
24/08:30am 31.3 25.1 4.2 18 14.2 ENE 26 35 14 19 1017.5 1016.1 0.0
24/08:00am 29.9 24.4 3.8 19 13.4 ENE 22 37 12 20 1017.3 1015.9 0.0
24/07:30am 28.4 23.6 4.6 22 12.3 ENE 19 26 10 14 1017.1 1015.7 0.0
24/07:00am 26.0 22.3 4.5 25 10.9 ENE 13 17 7 9 1016.8 1015.4 0.0
24/06:30am 25.3 21.6 4.4 26 10.6 ENE 13 17 7 9 1016.6 1015.2 0.0
24/06:00am 23.2 19.8 4.2 29 9.4 E 11 15 6 8 1016.2 1014.8 0.0
24/05:30am 23.2 20.1 3.7 28 9.6 E 9 9 5 5 1015.8 1014.3 0.0
24/05:00am 23.8 20.7 3.7 27 9.9 E 9 11 5 6 1015.5 1014.0 0.0
24/04:30am 24.3 20.8 3.6 26 10.2 E 11 13 6 7 1015.2 1013.7 0.0
24/04:00am 25.9 22.1 3.8 24 11.1 ENE 13 15 7 8 1014.9 1013.5 0.0
24/03:30am 25.9 22.1 3.8 24 11.1 ENE 13 15 7 8 1014.7 1013.3 0.0
24/03:00am 25.7 21.8 3.6 24 11.0 E 13 19 7 10 1014.7 1013.3 0.0
24/02:30am 24.5 21.5 4.3 27 10.1 ENE 9 11 5 6 1014.8 1013.4 0.0
24/02:00am 22.9 20.2 2.9 27 9.7 E 6 7 3 4 1015.0 1013.6 0.0
24/01:30am 23.1 21.7 3.6 28 9.6 CALM 0 6 0 3 1015.2 1013.7 0.0
24/01:00am 24.0 21.0 1.0 22 10.8 ENE 6 7 3 4 1015.4 1013.9 0.0
24/12:30am 25.3 22.4 2.7 23 11.1 ENE 7 9 4 5 1015.6 1014.1 0.0
24/12:00am 26.2 22.9 2.2 21 11.7 NE 9 11 5 6 1015.9 1014.4 0.0
 
Date/Time
EST
Temp
°C
App
Temp
°C
Dew
Point
Rel
Hum
%
Delta-T
°C
Wind Press
QNH
hPa
Press
MSL
hPa
Rain
since 9 am
mm
Dir
 
Spd
km/h
Gust
km/h
Spd
kts
Gust
kts
23/11:30pm 26.8 23.2 2.7 21 11.9 NE 11 11 6 6 1016.0 1014.5 0.0
23/11:00pm 27.2 23.9 2.3 20 12.3 ENE 9 11 5 6 1016.1 1014.7 0.0
23/10:30pm 27.2 23.9 2.3 20 12.3 NE 9 11 5 6 1016.0 1014.5 0.0
23/10:00pm 28.0 25.0 2.2 19 12.8 ENE 7 9 4 5 1015.8 1014.3 0.0
23/09:30pm 28.8 25.4 2.1 18 13.3 ENE 9 11 5 6 1015.4 1013.9 0.0
23/09:00pm 29.2 26.3 2.5 18 13.4 ENE 7 9 4 5 1015.0 1013.6 0.0
23/08:30pm 29.7 26.5 2.9 18 13.6 E 9 9 5 5 1014.8 1013.4 0.0
23/08:00pm 30.3 27.3 1.7 16 14.2 E 7 9 4 5 1014.6 1013.2 0.0
23/07:30pm 31.3 27.5 1.6 15 14.9 E 11 13 6 7 1014.2 1012.8 0.0
23/07:00pm 33.2 28.7 2.1 14 15.9 E 15 20 8 11 1013.8 1012.4 0.0
23/06:30pm 34.3 29.0 3.0 14 16.3 E 20 26 11 14 1013.5 1012.1 0.0
23/06:00pm 34.9 29.7 3.5 14 16.6 ENE 20 24 11 13 1013.1 1011.7 0.0
23/05:30pm 35.1 30.1 3.6 14 16.7 E 19 32 10 17 1012.9 1011.5 0.0
23/05:00pm 35.7 30.8 5.1 15 16.6 ENE 20 32 11 17 1012.8 1011.4 0.0
23/04:30pm 36.2 31.2 4.5 14 17.1 NE 20 28 11 15 1012.7 1011.3 0.0
23/04:00pm 35.7 32.5 5.1 15 16.6 E 11 17 6 9 1013.0 1011.6 0.0
23/03:30pm 35.3 31.3 4.8 15 16.5 E 15 22 8 12 1013.2 1011.8 0.0
23/03:00pm 35.6 32.0 5.0 15 16.6 NNE 13 22 7 12 1013.5 1012.1 0.0
23/02:30pm 35.0 30.4 6.3 17 15.8 NNE 20 30 11 16 1014.1 1012.7 0.0
23/02:00pm 35.3 32.0 6.6 17 15.9 NNE 13 22 7 12 1014.5 1013.1 0.0
23/01:30pm 33.9 29.8 7.8 20 14.7 NNE 19 24 10 13 1015.0 1013.6 0.0
23/01:00pm 33.7 29.9 7.6 20 14.6 ENE 17 32 9 17 1015.7 1014.2 0.0
23/12:30pm 32.8 29.5 9.6 24 13.3 NNE 17 30 9 16 1016.2 1014.8 0.0
23/12:00pm 33.5 29.6 10.8 25 13.3 ENE 22 37 12 20 1016.8 1015.4 0.0
23/11:30am 32.5 28.6 9.3 24 13.2 N 20 26 11 14 1017.1 1015.7 0.0
23/11:00am 32.2 27.6 9.7 25 12.9 NE 24 35 13 19 1017.6 1016.2 0.0
23/10:30am 31.7 26.6 9.3 25 12.7 NE 26 39 14 21 1017.9 1016.5 0.0

Other Formats:

Comma delimited format used in spreadsheet applications
http://www.bom.gov.au/fwo/IDQ60801/IDQ60801.94255.axf

JavaScript Object Notation format (JSON) in row-major order
http://www.bom.gov.au/fwo/IDQ60801/IDQ60801.94255.json